sensor_id;sensor_type;location;lat;lon;timestamp;pressure;altitude;pressure_sealevel;temperature
5571;BMP180;2808;51.240;6.794;2023-08-08T00:01:33;101046.00;;;15.20
5571;BMP180;2808;51.240;6.794;2023-08-08T00:04:01;101042.00;;;15.20
5571;BMP180;2808;51.240;6.794;2023-08-08T00:06:28;101042.00;;;15.10
5571;BMP180;2808;51.240;6.794;2023-08-08T00:08:56;101039.00;;;15.10
5571;BMP180;2808;51.240;6.794;2023-08-08T00:11:23;101044.00;;;15.00
5571;BMP180;2808;51.240;6.794;2023-08-08T00:13:53;101034.00;;;15.00
5571;BMP180;2808;51.240;6.794;2023-08-08T00:16:21;101024.00;;;15.00
5571;BMP180;2808;51.240;6.794;2023-08-08T00:18:49;101019.00;;;14.90
5571;BMP180;2808;51.240;6.794;2023-08-08T00:21:16;101017.00;;;14.90
5571;BMP180;2808;51.240;6.794;2023-08-08T00:23:44;101012.00;;;14.80
5571;BMP180;2808;51.240;6.794;2023-08-08T00:26:11;101012.00;;;14.80
5571;BMP180;2808;51.240;6.794;2023-08-08T00:28:39;101012.00;;;14.80
5571;BMP180;2808;51.240;6.794;2023-08-08T00:31:08;101017.00;;;14.80
5571;BMP180;2808;51.240;6.794;2023-08-08T00:33:35;101016.00;;;14.70
5571;BMP180;2808;51.240;6.794;2023-08-08T00:36:03;101020.00;;;14.70
5571;BMP180;2808;51.240;6.794;2023-08-08T00:38:30;101025.00;;;14.70
5571;BMP180;2808;51.240;6.794;2023-08-08T00:40:58;101021.00;;;14.70
5571;BMP180;2808;51.240;6.794;2023-08-08T00:43:25;101027.00;;;14.60
5571;BMP180;2808;51.240;6.794;2023-08-08T00:45:53;101020.00;;;14.60
5571;BMP180;2808;51.240;6.794;2023-08-08T00:48:21;101014.00;;;14.60
5571;BMP180;2808;51.240;6.794;2023-08-08T00:50:50;101019.00;;;14.50
5571;BMP180;2808;51.240;6.794;2023-08-08T00:53:18;101015.00;;;14.50
5571;BMP180;2808;51.240;6.794;2023-08-08T00:55:48;101016.00;;;14.50
5571;BMP180;2808;51.240;6.794;2023-08-08T00:58:16;101014.00;;;14.40
5571;BMP180;2808;51.240;6.794;2023-08-08T01:00:44;101020.00;;;14.40
5571;BMP180;2808;51.240;6.794;2023-08-08T01:03:14;101015.00;;;14.40
5571;BMP180;2808;51.240;6.794;2023-08-08T01:05:48;101016.00;;;14.50
5571;BMP180;2808;51.240;6.794;2023-08-08T01:08:24;101023.00;;;14.60
5571;BMP180;2808;51.240;6.794;2023-08-08T01:10:54;101017.00;;;14.60
5571;BMP180;2808;51.240;6.794;2023-08-08T01:13:23;101017.00;;;14.60
5571;BMP180;2808;51.240;6.794;2023-08-08T01:15:54;101019.00;;;14.50
5571;BMP180;2808;51.240;6.794;2023-08-08T01:18:23;101005.00;;;14.40
5571;BMP180;2808;51.240;6.794;2023-08-08T01:20:53;100995.00;;;14.40
5571;BMP180;2808;51.240;6.794;2023-08-08T01:23:26;101006.00;;;14.30
5571;BMP180;2808;51.240;6.794;2023-08-08T01:25:57;101004.00;;;14.30
5571;BMP180;2808;51.240;6.794;2023-08-08T01:28:25;101005.00;;;14.30
5571;BMP180;2808;51.240;6.794;2023-08-08T01:30:53;101011.00;;;14.30
5571;BMP180;2808;51.240;6.794;2023-08-08T01:33:21;101005.00;;;14.30
5571;BMP180;2808;51.240;6.794;2023-08-08T01:35:52;101005.00;;;14.30
5571;BMP180;2808;51.240;6.794;2023-08-08T01:38:23;101004.00;;;14.40
5571;BMP180;2808;51.240;6.794;2023-08-08T01:40:52;101003.00;;;14.40
5571;BMP180;2808;51.240;6.794;2023-08-08T01:43:24;100997.00;;;14.30
5571;BMP180;2808;51.240;6.794;2023-08-08T01:45:52;100993.00;;;14.30
5571;BMP180;2808;51.240;6.794;2023-08-08T01:48:20;100995.00;;;14.30
5571;BMP180;2808;51.240;6.794;2023-08-08T01:50:47;100996.00;;;14.30
5571;BMP180;2808;51.240;6.794;2023-08-08T01:53:15;100990.00;;;14.20
5571;BMP180;2808;51.240;6.794;2023-08-08T01:55:42;100984.00;;;14.30
5571;BMP180;2808;51.240;6.794;2023-08-08T01:58:10;100977.00;;;14.20
5571;BMP180;2808;51.240;6.794;2023-08-08T02:00:39;100991.00;;;14.30
5571;BMP180;2808;51.240;6.794;2023-08-08T02:03:07;100990.00;;;14.30
5571;BMP180;2808;51.240;6.794;2023-08-08T02:05:34;100978.00;;;14.30
5571;BMP180;2808;51.240;6.794;2023-08-08T02:08:02;100975.00;;;14.40
5571;BMP180;2808;51.240;6.794;2023-08-08T02:10:30;100974.00;;;14.40
5571;BMP180;2808;51.240;6.794;2023-08-08T02:12:57;100969.00;;;14.40
5571;BMP180;2808;51.240;6.794;2023-08-08T02:15:25;100979.00;;;14.40
5571;BMP180;2808;51.240;6.794;2023-08-08T02:17:53;100973.00;;;14.30
5571;BMP180;2808;51.240;6.794;2023-08-08T02:20:21;100964.00;;;14.30
5571;BMP180;2808;51.240;6.794;2023-08-08T02:22:48;100969.00;;;14.30
5571;BMP180;2808;51.240;6.794;2023-08-08T02:25:18;100964.00;;;14.30
5571;BMP180;2808;51.240;6.794;2023-08-08T02:27:46;100962.00;;;14.30
5571;BMP180;2808;51.240;6.794;2023-08-08T02:30:14;100960.00;;;14.30
5571;BMP180;2808;51.240;6.794;2023-08-08T02:32:42;100964.00;;;14.20
5571;BMP180;2808;51.240;6.794;2023-08-08T02:35:11;100956.00;;;14.30
5571;BMP180;2808;51.240;6.794;2023-08-08T02:37:39;100959.00;;;14.30
5571;BMP180;2808;51.240;6.794;2023-08-08T02:40:07;100957.00;;;14.30
5571;BMP180;2808;51.240;6.794;2023-08-08T02:42:35;100953.00;;;14.30
5571;BMP180;2808;51.240;6.794;2023-08-08T02:45:03;100948.00;;;14.30
5571;BMP180;2808;51.240;6.794;2023-08-08T02:47:31;100943.00;;;14.30
5571;BMP180;2808;51.240;6.794;2023-08-08T02:49:59;100939.00;;;14.30
5571;BMP180;2808;51.240;6.794;2023-08-08T02:52:27;100952.00;;;14.30
5571;BMP180;2808;51.240;6.794;2023-08-08T02:54:55;100940.00;;;14.20
5571;BMP180;2808;51.240;6.794;2023-08-08T02:57:24;100948.00;;;14.30
5571;BMP180;2808;51.240;6.794;2023-08-08T02:59:51;100949.00;;;14.30
5571;BMP180;2808;51.240;6.794;2023-08-08T03:02:20;100946.00;;;14.20
5571;BMP180;2808;51.240;6.794;2023-08-08T03:04:48;100940.00;;;14.30
5571;BMP180;2808;51.240;6.794;2023-08-08T03:07:17;100943.00;;;14.30
5571;BMP180;2808;51.240;6.794;2023-08-08T03:09:45;100936.00;;;14.30
5571;BMP180;2808;51.240;6.794;2023-08-08T03:12:13;100935.00;;;14.30
5571;BMP180;2808;51.240;6.794;2023-08-08T03:14:41;100936.00;;;14.40
5571;BMP180;2808;51.240;6.794;2023-08-08T03:17:08;100933.00;;;14.40
5571;BMP180;2808;51.240;6.794;2023-08-08T03:19:36;100931.00;;;14.40
5571;BMP180;2808;51.240;6.794;2023-08-08T03:22:03;100931.00;;;14.40
5571;BMP180;2808;51.240;6.794;2023-08-08T03:24:31;100951.00;;;14.40
5571;BMP180;2808;51.240;6.794;2023-08-08T03:27:00;100932.00;;;14.40
5571;BMP180;2808;51.240;6.794;2023-08-08T03:29:27;100936.00;;;14.40
5571;BMP180;2808;51.240;6.794;2023-08-08T03:31:55;100942.00;;;14.40
5571;BMP180;2808;51.240;6.794;2023-08-08T03:34:22;100929.00;;;14.40
5571;BMP180;2808;51.240;6.794;2023-08-08T03:36:50;100938.00;;;14.40
5571;BMP180;2808;51.240;6.794;2023-08-08T03:39:17;100931.00;;;14.40
5571;BMP180;2808;51.240;6.794;2023-08-08T03:41:45;100935.00;;;14.40
5571;BMP180;2808;51.240;6.794;2023-08-08T03:44:14;100942.00;;;14.40
5571;BMP180;2808;51.240;6.794;2023-08-08T03:46:41;100938.00;;;14.50
5571;BMP180;2808;51.240;6.794;2023-08-08T03:49:09;100941.00;;;14.50
5571;BMP180;2808;51.240;6.794;2023-08-08T03:51:37;100938.00;;;14.50
5571;BMP180;2808;51.240;6.794;2023-08-08T03:54:04;100936.00;;;14.50
5571;BMP180;2808;51.240;6.794;2023-08-08T03:56:31;100938.00;;;14.50
5571;BMP180;2808;51.240;6.794;2023-08-08T03:58:59;100935.00;;;14.60
5571;BMP180;2808;51.240;6.794;2023-08-08T04:01:28;100946.00;;;14.50
5571;BMP180;2808;51.240;6.794;2023-08-08T04:03:55;100936.00;;;14.50
5571;BMP180;2808;51.240;6.794;2023-08-08T04:06:23;100928.00;;;14.50
5571;BMP180;2808;51.240;6.794;2023-08-08T04:08:50;100932.00;;;14.40
5571;BMP180;2808;51.240;6.794;2023-08-08T04:11:18;100936.00;;;14.50
5571;BMP180;2808;51.240;6.794;2023-08-08T04:13:45;100931.00;;;14.40
5571;BMP180;2808;51.240;6.794;2023-08-08T04:16:13;100928.00;;;14.50
5571;BMP180;2808;51.240;6.794;2023-08-08T04:18:42;100930.00;;;14.40
5571;BMP180;2808;51.240;6.794;2023-08-08T04:21:10;100932.00;;;14.40
5571;BMP180;2808;51.240;6.794;2023-08-08T04:23:37;100932.00;;;14.40
5571;BMP180;2808;51.240;6.794;2023-08-08T04:26:04;100926.00;;;14.40
5571;BMP180;2808;51.240;6.794;2023-08-08T04:28:32;100926.00;;;14.50
5571;BMP180;2808;51.240;6.794;2023-08-08T04:31:00;100930.00;;;14.50
5571;BMP180;2808;51.240;6.794;2023-08-08T04:33:27;100924.00;;;14.50
5571;BMP180;2808;51.240;6.794;2023-08-08T04:35:56;100927.00;;;14.50
5571;BMP180;2808;51.240;6.794;2023-08-08T04:38:23;100921.00;;;14.50
5571;BMP180;2808;51.240;6.794;2023-08-08T04:40:51;100927.00;;;14.50
5571;BMP180;2808;51.240;6.794;2023-08-08T04:43:18;100929.00;;;14.60
5571;BMP180;2808;51.240;6.794;2023-08-08T04:45:46;100918.00;;;14.50
5571;BMP180;2808;51.240;6.794;2023-08-08T04:48:13;100920.00;;;14.60
5571;BMP180;2808;51.240;6.794;2023-08-08T04:50:41;100923.00;;;14.60
5571;BMP180;2808;51.240;6.794;2023-08-08T04:53:10;100913.00;;;14.60
5571;BMP180;2808;51.240;6.794;2023-08-08T04:55:38;100923.00;;;14.70
5571;BMP180;2808;51.240;6.794;2023-08-08T04:58:06;100915.00;;;14.70
5571;BMP180;2808;51.240;6.794;2023-08-08T05:00:33;100912.00;;;14.70
5571;BMP180;2808;51.240;6.794;2023-08-08T05:03:10;100909.00;;;14.70
5571;BMP180;2808;51.240;6.794;2023-08-08T05:05:38;100910.00;;;14.80
5571;BMP180;2808;51.240;6.794;2023-08-08T05:08:05;100905.00;;;14.80
5571;BMP180;2808;51.240;6.794;2023-08-08T05:10:34;100915.00;;;14.80
5571;BMP180;2808;51.240;6.794;2023-08-08T05:13:02;100916.00;;;14.80
5571;BMP180;2808;51.240;6.794;2023-08-08T05:15:32;100914.00;;;14.80
5571;BMP180;2808;51.240;6.794;2023-08-08T05:18:00;100909.00;;;14.80
5571;BMP180;2808;51.240;6.794;2023-08-08T05:20:27;100915.00;;;14.80
5571;BMP180;2808;51.240;6.794;2023-08-08T05:22:55;100912.00;;;14.80
5571;BMP180;2808;51.240;6.794;2023-08-08T05:25:22;100914.00;;;14.90
5571;BMP180;2808;51.240;6.794;2023-08-08T05:27:51;100912.00;;;14.90
5571;BMP180;2808;51.240;6.794;2023-08-08T05:30:19;100925.00;;;14.90
5571;BMP180;2808;51.240;6.794;2023-08-08T05:32:47;100916.00;;;14.90
5571;BMP180;2808;51.240;6.794;2023-08-08T05:35:14;100909.00;;;14.90
5571;BMP180;2808;51.240;6.794;2023-08-08T05:37:42;100919.00;;;14.90
5571;BMP180;2808;51.240;6.794;2023-08-08T05:40:10;100917.00;;;14.90
5571;BMP180;2808;51.240;6.794;2023-08-08T05:42:37;100916.00;;;14.90
5571;BMP180;2808;51.240;6.794;2023-08-08T05:45:08;100918.00;;;15.10
5571;BMP180;2808;51.240;6.794;2023-08-08T05:47:35;100917.00;;;15.10
5571;BMP180;2808;51.240;6.794;2023-08-08T05:50:03;100918.00;;;15.20
5571;BMP180;2808;51.240;6.794;2023-08-08T05:52:30;100907.00;;;15.20
5571;BMP180;2808;51.240;6.794;2023-08-08T05:54:58;100915.00;;;15.30
5571;BMP180;2808;51.240;6.794;2023-08-08T05:57:26;100919.00;;;15.30
5571;BMP180;2808;51.240;6.794;2023-08-08T05:59:53;100911.00;;;15.30
5571;BMP180;2808;51.240;6.794;2023-08-08T06:02:22;100921.00;;;15.30
5571;BMP180;2808;51.240;6.794;2023-08-08T06:04:50;100922.00;;;15.30
5571;BMP180;2808;51.240;6.794;2023-08-08T06:07:17;100929.00;;;15.30
5571;BMP180;2808;51.240;6.794;2023-08-08T06:09:45;100933.00;;;15.30
5571;BMP180;2808;51.240;6.794;2023-08-08T06:12:13;100932.00;;;15.40
5571;BMP180;2808;51.240;6.794;2023-08-08T06:14:40;100930.00;;;15.40
5571;BMP180;2808;51.240;6.794;2023-08-08T06:17:14;100923.00;;;15.50
5571;BMP180;2808;51.240;6.794;2023-08-08T06:19:43;100937.00;;;15.50
5571;BMP180;2808;51.240;6.794;2023-08-08T06:22:11;100929.00;;;15.60
5571;BMP180;2808;51.240;6.794;2023-08-08T06:24:39;100943.00;;;15.60
5571;BMP180;2808;51.240;6.794;2023-08-08T06:27:12;100936.00;;;15.60
5571;BMP180;2808;51.240;6.794;2023-08-08T06:29:42;100945.00;;;15.60
5571;BMP180;2808;51.240;6.794;2023-08-08T06:32:09;100941.00;;;15.60
5571;BMP180;2808;51.240;6.794;2023-08-08T06:34:37;100951.00;;;15.60
5571;BMP180;2808;51.240;6.794;2023-08-08T06:37:06;100949.00;;;15.60
5571;BMP180;2808;51.240;6.794;2023-08-08T06:39:34;100941.00;;;15.60
5571;BMP180;2808;51.240;6.794;2023-08-08T06:42:04;100947.00;;;15.70
5571;BMP180;2808;51.240;6.794;2023-08-08T06:44:33;100948.00;;;15.70
5571;BMP180;2808;51.240;6.794;2023-08-08T06:47:00;100946.00;;;15.60
5571;BMP180;2808;51.240;6.794;2023-08-08T06:49:27;100949.00;;;15.60
5571;BMP180;2808;51.240;6.794;2023-08-08T06:51:55;100946.00;;;15.70
5571;BMP180;2808;51.240;6.794;2023-08-08T06:54:30;100947.00;;;15.70
5571;BMP180;2808;51.240;6.794;2023-08-08T06:56:58;100944.00;;;15.80
5571;BMP180;2808;51.240;6.794;2023-08-08T06:59:27;100947.00;;;15.80
5571;BMP180;2808;51.240;6.794;2023-08-08T07:01:55;100942.00;;;16.00
5571;BMP180;2808;51.240;6.794;2023-08-08T07:04:23;100948.00;;;16.10
5571;BMP180;2808;51.240;6.794;2023-08-08T07:06:54;100944.00;;;16.20
5571;BMP180;2808;51.240;6.794;2023-08-08T07:09:21;100938.00;;;16.30
5571;BMP180;2808;51.240;6.794;2023-08-08T07:11:51;100928.00;;;16.50
5571;BMP180;2808;51.240;6.794;2023-08-08T07:14:18;100929.00;;;16.70
5571;BMP180;2808;51.240;6.794;2023-08-08T07:16:46;100933.00;;;16.80
5571;BMP180;2808;51.240;6.794;2023-08-08T07:19:14;100929.00;;;16.90
5571;BMP180;2808;51.240;6.794;2023-08-08T07:21:43;100926.00;;;17.10
5571;BMP180;2808;51.240;6.794;2023-08-08T07:24:11;100928.00;;;17.50
5571;BMP180;2808;51.240;6.794;2023-08-08T07:26:47;100926.00;;;17.90
5571;BMP180;2808;51.240;6.794;2023-08-08T07:32:45;100921.00;;;17.90
5571;BMP180;2808;51.240;6.794;2023-08-08T07:35:20;100922.00;;;17.90
5571;BMP180;2808;51.240;6.794;2023-08-08T07:37:53;100916.00;;;18.00
5571;BMP180;2808;51.240;6.794;2023-08-08T07:40:27;100923.00;;;18.00
5571;BMP180;2808;51.240;6.794;2023-08-08T07:42:54;100909.00;;;18.50
5571;BMP180;2808;51.240;6.794;2023-08-08T07:45:22;100913.00;;;19.00
5571;BMP180;2808;51.240;6.794;2023-08-08T07:47:53;100920.00;;;19.00
5571;BMP180;2808;51.240;6.794;2023-08-08T07:52:09;100915.00;;;18.90
5571;BMP180;2808;51.240;6.794;2023-08-08T07:54:26;100907.00;;;18.70
5571;BMP180;2808;51.240;6.794;2023-08-08T08:04:21;100921.00;;;19.10
5571;BMP180;2808;51.240;6.794;2023-08-08T08:07:22;100931.00;;;18.80
5571;BMP180;2808;51.240;6.794;2023-08-08T08:09:55;100931.00;;;18.70
5571;BMP180;2808;51.240;6.794;2023-08-08T08:12:31;100924.00;;;18.70
5571;BMP180;2808;51.240;6.794;2023-08-08T08:15:28;100919.00;;;18.80
5571;BMP180;2808;51.240;6.794;2023-08-08T08:17:59;100930.00;;;18.80
5571;BMP180;2808;51.240;6.794;2023-08-08T08:20:55;100927.00;;;18.80
5571;BMP180;2808;51.240;6.794;2023-08-08T08:23:36;100928.00;;;18.70
5571;BMP180;2808;51.240;6.794;2023-08-08T08:26:06;100917.00;;;18.70
5571;BMP180;2808;51.240;6.794;2023-08-08T08:28:36;100924.00;;;18.90
5571;BMP180;2808;51.240;6.794;2023-08-08T08:31:33;100926.00;;;19.10
5571;BMP180;2808;51.240;6.794;2023-08-08T08:34:03;100935.00;;;18.80
5571;BMP180;2808;51.240;6.794;2023-08-08T08:36:43;100929.00;;;18.60
5571;BMP180;2808;51.240;6.794;2023-08-08T08:39:24;100916.00;;;18.70
5571;BMP180;2808;51.240;6.794;2023-08-08T08:42:27;100921.00;;;19.00
5571;BMP180;2808;51.240;6.794;2023-08-08T08:44:58;100914.00;;;19.30
5571;BMP180;2808;51.240;6.794;2023-08-08T08:47:30;100920.00;;;19.60
5571;BMP180;2808;51.240;6.794;2023-08-08T08:49:59;100916.00;;;19.60
5571;BMP180;2808;51.240;6.794;2023-08-08T08:52:39;100922.00;;;19.60
5571;BMP180;2808;51.240;6.794;2023-08-08T08:55:10;100917.00;;;19.60
5571;BMP180;2808;51.240;6.794;2023-08-08T08:57:38;100914.00;;;19.60
5571;BMP180;2808;51.240;6.794;2023-08-08T09:00:07;100923.00;;;19.50
5571;BMP180;2808;51.240;6.794;2023-08-08T09:02:35;100923.00;;;19.30
5571;BMP180;2808;51.240;6.794;2023-08-08T09:05:04;100929.00;;;19.30
5571;BMP180;2808;51.240;6.794;2023-08-08T09:07:33;100930.00;;;19.20
5571;BMP180;2808;51.240;6.794;2023-08-08T09:10:03;100931.00;;;19.40
5571;BMP180;2808;51.240;6.794;2023-08-08T09:12:34;100929.00;;;19.60
5571;BMP180;2808;51.240;6.794;2023-08-08T09:15:03;100924.00;;;19.80
5571;BMP180;2808;51.240;6.794;2023-08-08T09:17:33;100926.00;;;20.10
5571;BMP180;2808;51.240;6.794;2023-08-08T09:20:01;100914.00;;;20.40
5571;BMP180;2808;51.240;6.794;2023-08-08T09:22:35;100917.00;;;20.60
5571;BMP180;2808;51.240;6.794;2023-08-08T09:25:07;100916.00;;;20.60
5571;BMP180;2808;51.240;6.794;2023-08-08T09:27:35;100917.00;;;20.80
5571;BMP180;2808;51.240;6.794;2023-08-08T09:30:07;100910.00;;;20.90
5571;BMP180;2808;51.240;6.794;2023-08-08T09:32:35;100918.00;;;21.10
5571;BMP180;2808;51.240;6.794;2023-08-08T09:35:06;100918.00;;;21.30
5571;BMP180;2808;51.240;6.794;2023-08-08T09:37:37;100915.00;;;21.60
5571;BMP180;2808;51.240;6.794;2023-08-08T09:40:11;100911.00;;;21.80
5571;BMP180;2808;51.240;6.794;2023-08-08T09:42:40;100916.00;;;22.00
5571;BMP180;2808;51.240;6.794;2023-08-08T09:45:11;100918.00;;;22.10
5571;BMP180;2808;51.240;6.794;2023-08-08T09:47:41;100905.00;;;22.00
5571;BMP180;2808;51.240;6.794;2023-08-08T09:50:11;100916.00;;;22.00
5571;BMP180;2808;51.240;6.794;2023-08-08T09:52:46;100917.00;;;22.00
5571;BMP180;2808;51.240;6.794;2023-08-08T09:55:18;100924.00;;;22.00
5571;BMP180;2808;51.240;6.794;2023-08-08T09:58:09;100924.00;;;22.00
5571;BMP180;2808;51.240;6.794;2023-08-08T10:00:46;100926.00;;;22.00
5571;BMP180;2808;51.240;6.794;2023-08-08T10:06:48;100923.00;;;21.60
5571;BMP180;2808;51.240;6.794;2023-08-08T10:09:20;100919.00;;;21.50
5571;BMP180;2808;51.240;6.794;2023-08-08T10:11:49;100921.00;;;21.50
5571;BMP180;2808;51.240;6.794;2023-08-08T10:14:29;100933.00;;;21.20
5571;BMP180;2808;51.240;6.794;2023-08-08T10:17:44;100924.00;;;20.90
5571;BMP180;2808;51.240;6.794;2023-08-08T10:20:00;100922.00;;;20.60
5571;BMP180;2808;51.240;6.794;2023-08-08T10:22:36;100930.00;;;20.40
5571;BMP180;2808;51.240;6.794;2023-08-08T10:25:07;100925.00;;;20.40
5571;BMP180;2808;51.240;6.794;2023-08-08T10:27:36;100924.00;;;20.20
5571;BMP180;2808;51.240;6.794;2023-08-08T10:30:13;100930.00;;;20.00
5571;BMP180;2808;51.240;6.794;2023-08-08T10:36:47;100932.00;;;19.70
5571;BMP180;2808;51.240;6.794;2023-08-08T10:39:21;100930.00;;;19.70
5571;BMP180;2808;51.240;6.794;2023-08-08T10:42:06;100926.00;;;19.50
5571;BMP180;2808;51.240;6.794;2023-08-08T10:44:41;100940.00;;;19.40
5571;BMP180;2808;51.240;6.794;2023-08-08T10:47:11;100943.00;;;19.30
5571;BMP180;2808;51.240;6.794;2023-08-08T10:49:57;100938.00;;;19.10
5571;BMP180;2808;51.240;6.794;2023-08-08T10:52:27;100937.00;;;19.00
5571;BMP180;2808;51.240;6.794;2023-08-08T10:54:55;100939.00;;;18.90
5571;BMP180;2808;51.240;6.794;2023-08-08T10:57:26;100946.00;;;18.90
5571;BMP180;2808;51.240;6.794;2023-08-08T10:59:56;100941.00;;;19.00
5571;BMP180;2808;51.240;6.794;2023-08-08T11:02:45;100937.00;;;19.10
5571;BMP180;2808;51.240;6.794;2023-08-08T11:05:28;100951.00;;;19.40
5571;BMP180;2808;51.240;6.794;2023-08-08T11:08:01;100946.00;;;19.50
5571;BMP180;2808;51.240;6.794;2023-08-08T11:10:42;100945.00;;;19.40
5571;BMP180;2808;51.240;6.794;2023-08-08T11:13:40;100943.00;;;19.30
5571;BMP180;2808;51.240;6.794;2023-08-08T11:16:14;100944.00;;;19.30
5571;BMP180;2808;51.240;6.794;2023-08-08T11:18:57;100931.00;;;19.50
5571;BMP180;2808;51.240;6.794;2023-08-08T11:21:43;100926.00;;;19.90
5571;BMP180;2808;51.240;6.794;2023-08-08T11:24:13;100915.00;;;20.20
5571;BMP180;2808;51.240;6.794;2023-08-08T11:26:44;100924.00;;;20.20
5571;BMP180;2808;51.240;6.794;2023-08-08T11:29:15;100914.00;;;20.10
5571;BMP180;2808;51.240;6.794;2023-08-08T11:31:44;100925.00;;;19.80
5571;BMP180;2808;51.240;6.794;2023-08-08T11:34:14;100921.00;;;19.60
5571;BMP180;2808;51.240;6.794;2023-08-08T11:37:10;100912.00;;;19.60
5571;BMP180;2808;51.240;6.794;2023-08-08T11:39:41;100906.00;;;19.70
5571;BMP180;2808;51.240;6.794;2023-08-08T11:42:18;100915.00;;;19.80
5571;BMP180;2808;51.240;6.794;2023-08-08T11:44:48;100916.00;;;19.70
5571;BMP180;2808;51.240;6.794;2023-08-08T11:47:34;100918.00;;;19.60
5571;BMP180;2808;51.240;6.794;2023-08-08T11:50:12;100921.00;;;19.60
5571;BMP180;2808;51.240;6.794;2023-08-08T11:52:54;100923.00;;;19.50
5571;BMP180;2808;51.240;6.794;2023-08-08T11:55:28;100918.00;;;19.30
5571;BMP180;2808;51.240;6.794;2023-08-08T11:57:56;100925.00;;;19.20
5571;BMP180;2808;51.240;6.794;2023-08-08T12:00:33;100924.00;;;19.10
5571;BMP180;2808;51.240;6.794;2023-08-08T12:03:03;100922.00;;;18.90
5571;BMP180;2808;51.240;6.794;2023-08-08T12:05:39;100917.00;;;18.70
5571;BMP180;2808;51.240;6.794;2023-08-08T12:08:07;100925.00;;;18.60
5571;BMP180;2808;51.240;6.794;2023-08-08T12:10:52;100928.00;;;18.50
5571;BMP180;2808;51.240;6.794;2023-08-08T12:13:31;100930.00;;;18.50
5571;BMP180;2808;51.240;6.794;2023-08-08T12:16:04;100924.00;;;18.40
5571;BMP180;2808;51.240;6.794;2023-08-08T12:18:33;100918.00;;;18.40
5571;BMP180;2808;51.240;6.794;2023-08-08T12:21:13;100923.00;;;18.30
5571;BMP180;2808;51.240;6.794;2023-08-08T12:23:44;100933.00;;;18.40
5571;BMP180;2808;51.240;6.794;2023-08-08T12:26:18;100931.00;;;18.40
5571;BMP180;2808;51.240;6.794;2023-08-08T12:29:01;100923.00;;;18.50
5571;BMP180;2808;51.240;6.794;2023-08-08T12:31:30;100929.00;;;18.60
5571;BMP180;2808;51.240;6.794;2023-08-08T12:33:57;100922.00;;;18.80
5571;BMP180;2808;51.240;6.794;2023-08-08T12:36:25;100925.00;;;19.00
5571;BMP180;2808;51.240;6.794;2023-08-08T12:39:06;100922.00;;;19.20
5571;BMP180;2808;51.240;6.794;2023-08-08T12:41:34;100907.00;;;19.30
5571;BMP180;2808;51.240;6.794;2023-08-08T12:44:02;100923.00;;;19.40
5571;BMP180;2808;51.240;6.794;2023-08-08T12:46:33;100912.00;;;19.50
5571;BMP180;2808;51.240;6.794;2023-08-08T12:49:00;100923.00;;;19.60
5571;BMP180;2808;51.240;6.794;2023-08-08T12:51:36;100900.00;;;19.80
5571;BMP180;2808;51.240;6.794;2023-08-08T12:54:04;100901.00;;;19.90
5571;BMP180;2808;51.240;6.794;2023-08-08T12:56:32;100899.00;;;20.00
5571;BMP180;2808;51.240;6.794;2023-08-08T12:59:04;100897.00;;;20.10
5571;BMP180;2808;51.240;6.794;2023-08-08T13:01:36;100904.00;;;20.10
5571;BMP180;2808;51.240;6.794;2023-08-08T13:04:06;100900.00;;;20.20
5571;BMP180;2808;51.240;6.794;2023-08-08T13:06:52;100903.00;;;20.20
5571;BMP180;2808;51.240;6.794;2023-08-08T13:09:30;100891.00;;;20.20
5571;BMP180;2808;51.240;6.794;2023-08-08T13:11:58;100897.00;;;20.10
5571;BMP180;2808;51.240;6.794;2023-08-08T13:14:38;100893.00;;;20.10
5571;BMP180;2808;51.240;6.794;2023-08-08T13:21:11;100887.00;;;20.10
5571;BMP180;2808;51.240;6.794;2023-08-08T13:23:41;100889.00;;;20.10
5571;BMP180;2808;51.240;6.794;2023-08-08T13:26:11;100896.00;;;20.10
5571;BMP180;2808;51.240;6.794;2023-08-08T13:28:44;100889.00;;;20.00
5571;BMP180;2808;51.240;6.794;2023-08-08T13:31:20;100889.00;;;20.00
5571;BMP180;2808;51.240;6.794;2023-08-08T13:37:29;100901.00;;;20.30
5571;BMP180;2808;51.240;6.794;2023-08-08T13:40:12;100894.00;;;20.30
5571;BMP180;2808;51.240;6.794;2023-08-08T13:42:49;100898.00;;;20.20
5571;BMP180;2808;51.240;6.794;2023-08-08T13:45:20;100908.00;;;20.20
5571;BMP180;2808;51.240;6.794;2023-08-08T13:47:50;100894.00;;;20.20
5571;BMP180;2808;51.240;6.794;2023-08-08T13:50:24;100897.00;;;20.20
5571;BMP180;2808;51.240;6.794;2023-08-08T13:52:54;100893.00;;;20.10
5571;BMP180;2808;51.240;6.794;2023-08-08T13:55:31;100898.00;;;20.10
5571;BMP180;2808;51.240;6.794;2023-08-08T13:58:05;100890.00;;;20.20
5571;BMP180;2808;51.240;6.794;2023-08-08T14:00:50;100892.00;;;20.20
5571;BMP180;2808;51.240;6.794;2023-08-08T14:03:32;100886.00;;;20.10
5571;BMP180;2808;51.240;6.794;2023-08-08T14:06:07;100888.00;;;20.20
5571;BMP180;2808;51.240;6.794;2023-08-08T14:08:39;100879.00;;;20.20
5571;BMP180;2808;51.240;6.794;2023-08-08T14:11:13;100883.00;;;20.30
5571;BMP180;2808;51.240;6.794;2023-08-08T14:13:41;100880.00;;;20.30
5571;BMP180;2808;51.240;6.794;2023-08-08T14:16:11;100888.00;;;20.20
5571;BMP180;2808;51.240;6.794;2023-08-08T14:18:40;100889.00;;;20.20
5571;BMP180;2808;51.240;6.794;2023-08-08T14:21:22;100885.00;;;20.20
5571;BMP180;2808;51.240;6.794;2023-08-08T14:23:53;100897.00;;;20.20
5571;BMP180;2808;51.240;6.794;2023-08-08T14:26:21;100891.00;;;20.20
5571;BMP180;2808;51.240;6.794;2023-08-08T14:29:00;100894.00;;;20.10
5571;BMP180;2808;51.240;6.794;2023-08-08T14:31:30;100884.00;;;20.10
5571;BMP180;2808;51.240;6.794;2023-08-08T14:45:14;100881.00;;;20.00
5571;BMP180;2808;51.240;6.794;2023-08-08T14:48:53;100887.00;;;20.00
5571;BMP180;2808;51.240;6.794;2023-08-08T15:01:35;100916.00;;;20.30
5571;BMP180;2808;51.240;6.794;2023-08-08T15:14:46;100892.00;;;20.70
5571;BMP180;2808;51.240;6.794;2023-08-08T16:03:49;100900.00;;;20.80
5571;BMP180;2808;51.240;6.794;2023-08-08T16:06:20;100901.00;;;20.70
5571;BMP180;2808;51.240;6.794;2023-08-08T16:09:00;100898.00;;;20.70
5571;BMP180;2808;51.240;6.794;2023-08-08T16:11:40;100897.00;;;20.70
5571;BMP180;2808;51.240;6.794;2023-08-08T16:14:12;100907.00;;;20.50
5571;BMP180;2808;51.240;6.794;2023-08-08T16:16:57;100913.00;;;20.40
5571;BMP180;2808;51.240;6.794;2023-08-08T16:19:49;100901.00;;;20.40
5571;BMP180;2808;51.240;6.794;2023-08-08T16:22:25;100909.00;;;20.50
5571;BMP180;2808;51.240;6.794;2023-08-08T16:28:47;100900.00;;;20.60
5571;BMP180;2808;51.240;6.794;2023-08-08T16:34:58;100894.00;;;20.70
5571;BMP180;2808;51.240;6.794;2023-08-08T16:37:30;100893.00;;;20.70
5571;BMP180;2808;51.240;6.794;2023-08-08T16:39:58;100895.00;;;20.80